Terminal Aerodrome Forecast
Issued by NWS

Home | Current Version | Previous Version | Text Only | Print | Product List | Glossary On
Versions: 1 2 3 4 5 6 7 8 9 10 11 12 13 14 15 16
000
FTUS46 KSEW 282300
TAFPAE
TAF
KPAE 282320Z 2900/2924 06006KT P6SM SCT015 OVC035
      TEMPO 2900/2904 5SM -SHRA BR BKN015 OVC030
     FM290400 30008KT P6SM VCSH SCT020 BKN050
     FM291000 30012KT P6SM -SHSN BKN015 BKN040
     FM291600 02012G22KT P6SM SCT040=

USA.gov is the U.S. government's official web portal to all federal, state and local government web resources and services.